createdAt,value
2023-05-20T00:03:22.658Z,10.10
2023-05-20T00:08:25.673Z,10.00
2023-05-20T00:13:27.990Z,10.00
2023-05-20T00:18:30.412Z,9.90
2023-05-20T00:23:32.732Z,9.80
2023-05-20T00:28:35.118Z,9.70
2023-05-20T00:33:37.796Z,9.70
2023-05-20T00:38:43.088Z,9.60
2023-05-20T00:43:45.487Z,9.60
2023-05-20T00:48:48.266Z,9.50
2023-05-20T00:53:51.527Z,9.50
2023-05-20T00:58:54.291Z,9.50
2023-05-20T01:03:56.940Z,9.40
2023-05-20T01:09:00.213Z,9.40
2023-05-20T01:14:06.993Z,9.40
2023-05-20T01:19:22.236Z,9.30
2023-05-20T01:24:24.790Z,9.30
2023-05-20T01:29:28.313Z,9.30
2023-05-20T01:34:31.070Z,9.20
2023-05-20T01:39:36.065Z,9.20
2023-05-20T01:44:38.667Z,9.00
2023-05-20T01:49:41.960Z,9.00
2023-05-20T01:54:51.059Z,8.90
2023-05-20T01:59:55.018Z,8.70
2023-05-20T02:04:58.637Z,8.70
2023-05-20T02:10:01.301Z,8.50
2023-05-20T02:15:05.710Z,8.50
2023-05-20T02:20:08.773Z,8.40
2023-05-20T02:25:11.479Z,8.30
2023-05-20T02:30:15.542Z,8.30
2023-05-20T02:35:17.986Z,8.20
2023-05-20T02:40:20.916Z,8.30
2023-05-20T02:45:23.536Z,8.30
2023-05-20T02:50:27.440Z,8.30
2023-05-20T02:55:35.419Z,8.30
2023-05-20T03:00:41.285Z,8.30
2023-05-20T03:05:46.497Z,8.30
2023-05-20T03:10:50.097Z,8.30
2023-05-20T03:15:53.307Z,8.30
2023-05-20T03:20:56.503Z,8.20
2023-05-20T03:25:59.164Z,8.20
2023-05-20T03:31:02.999Z,8.20
2023-05-20T03:36:06.881Z,8.30
2023-05-20T03:41:10.644Z,8.40
2023-05-20T03:46:13.517Z,8.40
2023-05-20T03:51:16.981Z,8.40
2023-05-20T03:56:21.393Z,8.30
2023-05-20T04:01:25.807Z,8.40
2023-05-20T04:06:28.576Z,8.50
2023-05-20T04:11:33.030Z,8.50
2023-05-20T04:16:37.548Z,8.30
2023-05-20T04:21:43.183Z,8.30
2023-05-20T04:26:47.184Z,8.30
2023-05-20T04:31:49.845Z,8.30
2023-05-20T04:36:52.888Z,8.40
2023-05-20T04:41:55.465Z,8.30
2023-05-20T04:46:59.796Z,8.30
2023-05-20T04:52:05.007Z,8.20
2023-05-20T04:57:07.708Z,8.20
2023-05-20T05:02:11.565Z,8.20
2023-05-20T05:07:14.640Z,8.20
2023-05-20T05:12:17.909Z,8.30
2023-05-20T05:17:20.908Z,8.30
2023-05-20T05:22:23.504Z,8.30
2023-05-20T05:27:28.321Z,8.30
2023-05-20T05:32:31.260Z,8.40
2023-05-20T05:37:33.831Z,8.60
2023-05-20T05:42:36.406Z,8.70
2023-05-20T05:47:39.162Z,8.80
2023-05-20T05:52:41.813Z,9.00
2023-05-20T05:57:46.170Z,9.10
2023-05-20T06:02:51.529Z,9.20
2023-05-20T06:08:06.556Z,9.40
2023-05-20T06:13:11.360Z,9.50
2023-05-20T06:18:14.023Z,9.90
2023-05-20T06:23:16.755Z,11.20
2023-05-20T06:28:31.973Z,12.50
2023-05-20T06:33:34.436Z,13.70
2023-05-20T06:38:41.946Z,14.70
2023-05-20T06:43:44.502Z,15.60
2023-05-20T06:49:07.080Z,16.30
2023-05-20T06:54:10.873Z,17.00
2023-05-20T06:59:13.288Z,17.30
2023-05-20T07:04:16.839Z,17.40
2023-05-20T07:09:19.495Z,17.50
2023-05-20T07:14:22.280Z,17.20
2023-05-20T07:19:24.823Z,17.60
2023-05-20T07:24:27.577Z,18.00
2023-05-20T07:29:30.150Z,18.00
2023-05-20T07:34:32.757Z,18.00
2023-05-20T07:39:38.010Z,18.20
2023-05-20T07:44:42.240Z,18.40
2023-05-20T07:49:46.860Z,18.30
2023-05-20T07:54:49.282Z,18.30
2023-05-20T07:59:52.158Z,18.60
2023-05-20T08:04:55.503Z,19.00
2023-05-20T08:09:58.011Z,19.00
2023-05-20T08:15:02.692Z,19.10
2023-05-20T08:20:13.847Z,18.90
2023-05-20T08:25:16.562Z,18.20
2023-05-20T08:30:21.012Z,17.70
2023-05-20T08:35:24.896Z,17.40
2023-05-20T08:40:30.726Z,17.00
2023-05-20T08:45:38.256Z,16.70
2023-05-20T08:50:52.141Z,16.80
2023-05-20T08:56:03.863Z,16.70
2023-05-20T09:01:10.196Z,17.00
2023-05-20T09:06:17.395Z,17.10
2023-05-20T09:11:21.846Z,17.40
2023-05-20T09:16:24.374Z,16.90
2023-05-20T09:21:29.123Z,16.90
2023-05-20T09:26:31.523Z,17.20
2023-05-20T09:31:35.776Z,17.20
2023-05-20T09:36:40.165Z,17.10
2023-05-20T09:41:56.812Z,17.10
2023-05-20T09:47:02.090Z,17.20
2023-05-20T09:52:04.593Z,17.30
2023-05-20T09:57:07.532Z,17.50
2023-05-20T10:02:11.232Z,17.60
2023-05-20T10:07:41.681Z,17.70
2023-05-20T10:13:12.582Z,18.10
2023-05-20T10:19:14.034Z,18.00
2023-05-20T10:24:16.516Z,18.00
2023-05-20T10:29:23.599Z,18.10
2023-05-20T10:34:26.695Z,18.10
2023-05-20T10:39:30.253Z,17.90
2023-05-20T10:44:50.256Z,17.60
2023-05-20T10:49:52.658Z,17.70
2023-05-20T10:54:58.529Z,17.80
2023-05-20T11:00:01.381Z,18.00
2023-05-20T11:05:04.955Z,17.90
2023-05-20T11:10:13.484Z,18.00
2023-05-20T11:15:21.012Z,18.00
2023-05-20T11:20:24.955Z,18.10
2023-05-20T11:25:36.351Z,18.60
2023-05-20T11:30:38.949Z,18.40
2023-05-20T11:35:49.270Z,18.60
2023-05-20T11:40:53.732Z,18.60
2023-05-20T11:46:01.232Z,18.80
2023-05-20T11:51:03.981Z,19.10
2023-05-20T11:56:09.149Z,18.80
2023-05-20T12:01:21.818Z,18.90
2023-05-20T12:06:25.026Z,19.10
2023-05-20T12:11:27.313Z,19.10
2023-05-20T12:16:32.039Z,19.00
2023-05-20T12:21:34.327Z,18.60
2023-05-20T12:26:38.394Z,19.10
2023-05-20T12:31:43.260Z,19.20
2023-05-20T12:36:48.708Z,18.80
2023-05-20T12:41:51.756Z,19.10
2023-05-20T12:46:55.835Z,19.40
2023-05-20T12:51:59.932Z,19.30
2023-05-20T12:57:05.440Z,19.10
2023-05-20T13:02:10.101Z,18.70
2023-05-20T13:07:14.409Z,18.80
2023-05-20T13:12:16.664Z,18.80
2023-05-20T13:17:19.732Z,18.40
2023-05-20T13:22:22.947Z,18.70
2023-05-20T13:27:25.358Z,18.60
2023-05-20T13:32:29.314Z,18.20
2023-05-20T13:37:31.578Z,18.40
2023-05-20T13:42:35.017Z,18.40
2023-05-20T13:47:37.776Z,18.40
2023-05-20T13:52:48.558Z,18.50
2023-05-20T13:57:53.353Z,18.40
2023-05-20T14:02:56.105Z,18.20
2023-05-20T14:07:58.968Z,18.40
2023-05-20T14:13:02.220Z,18.50
2023-05-20T14:18:09.037Z,18.20
2023-05-20T14:23:11.957Z,18.20
2023-05-20T14:28:14.847Z,18.30
2023-05-20T14:33:17.969Z,18.30
2023-05-20T14:38:21.544Z,18.50
2023-05-20T14:43:23.736Z,18.80
2023-05-20T14:48:25.944Z,18.70
2023-05-20T14:53:28.118Z,18.60
2023-05-20T14:58:30.362Z,18.60
2023-05-20T15:03:34.969Z,17.90
2023-05-20T15:08:37.343Z,17.70
2023-05-20T15:13:42.851Z,17.10
2023-05-20T15:18:45.723Z,16.90
2023-05-20T15:23:47.922Z,16.80
2023-05-20T15:28:51.586Z,16.80
2023-05-20T15:33:56.174Z,16.50
2023-05-20T15:38:58.549Z,17.10
2023-05-20T15:44:00.742Z,17.20
2023-05-20T15:49:03.007Z,17.40
2023-05-20T15:54:05.506Z,17.60
2023-05-20T15:59:07.722Z,18.50
2023-05-20T16:04:10.154Z,18.20
2023-05-20T16:09:12.582Z,18.20
2023-05-20T16:14:14.862Z,18.50
2023-05-20T16:19:17.172Z,18.80
2023-05-20T16:24:19.984Z,18.70
2023-05-20T16:29:22.497Z,18.90
2023-05-20T16:34:24.860Z,18.90
2023-05-20T16:39:27.042Z,19.00
2023-05-20T16:44:29.301Z,18.80
2023-05-20T16:49:31.576Z,18.50
2023-05-20T16:54:36.333Z,18.70
2023-05-20T16:59:38.735Z,18.40
2023-05-20T17:04:41.268Z,18.30
2023-05-20T17:09:43.758Z,18.10
2023-05-20T17:14:46.207Z,18.10
2023-05-20T17:19:48.514Z,18.10
2023-05-20T17:24:50.711Z,18.20
2023-05-20T17:29:52.985Z,18.20
2023-05-20T17:34:55.204Z,17.80
2023-05-20T17:39:57.578Z,17.40
2023-05-20T17:44:59.776Z,17.10
2023-05-20T17:50:02.785Z,17.00
2023-05-20T17:55:06.662Z,16.60
2023-05-20T18:00:09.511Z,16.60
2023-05-20T18:05:12.974Z,16.60
2023-05-20T18:10:15.379Z,16.70
2023-05-20T18:15:18.484Z,16.40
2023-05-20T18:20:21.187Z,16.20
2023-05-20T18:25:24.033Z,16.20
2023-05-20T18:30:26.276Z,16.30
2023-05-20T18:35:28.516Z,16.10
2023-05-20T18:40:31.000Z,16.00
2023-05-20T18:45:33.282Z,15.80
2023-05-20T18:50:35.871Z,15.70
2023-05-20T18:55:46.108Z,15.60
2023-05-20T19:00:48.578Z,15.40
2023-05-20T19:05:51.196Z,15.30
2023-05-20T19:10:53.774Z,15.10
2023-05-20T19:15:58.005Z,14.90
2023-05-20T19:21:00.192Z,14.80
2023-05-20T19:26:02.577Z,14.70
2023-05-20T19:31:04.924Z,14.60
2023-05-20T19:36:07.237Z,14.50
2023-05-20T19:41:13.537Z,14.30
2023-05-20T19:46:16.913Z,14.20
2023-05-20T19:51:19.216Z,14.20
2023-05-20T19:56:23.972Z,14.00
2023-05-20T20:01:26.639Z,13.90
2023-05-20T20:06:28.940Z,13.80
2023-05-20T20:11:31.270Z,13.70
2023-05-20T20:16:33.628Z,13.60
2023-05-20T20:21:36.432Z,13.50
2023-05-20T20:26:38.871Z,13.40
2023-05-20T20:31:41.182Z,13.30
2023-05-20T20:36:45.068Z,13.30
2023-05-20T20:41:50.901Z,13.20
2023-05-20T20:46:55.850Z,13.10
2023-05-20T20:51:58.286Z,13.10
2023-05-20T20:57:03.205Z,13.00
2023-05-20T21:02:07.724Z,12.90
2023-05-20T21:07:10.057Z,12.80
2023-05-20T21:12:12.312Z,12.80
2023-05-20T21:17:14.770Z,12.70
2023-05-20T21:22:17.087Z,12.70
2023-05-20T21:27:19.414Z,12.60
2023-05-20T21:32:23.393Z,12.50
2023-05-20T21:37:25.982Z,12.40
2023-05-20T21:42:28.974Z,12.30
2023-05-20T21:47:31.236Z,12.30
2023-05-20T21:52:34.571Z,12.20
2023-05-20T21:57:37.732Z,12.10
2023-05-20T22:02:40.104Z,12.00
2023-05-20T22:07:43.354Z,12.00
2023-05-20T22:12:45.812Z,12.00
2023-05-20T22:17:48.376Z,12.00
2023-05-20T22:22:50.756Z,12.00
2023-05-20T22:27:53.001Z,12.00
2023-05-20T22:32:56.284Z,12.00
2023-05-20T22:38:00.447Z,12.00
2023-05-20T22:43:06.178Z,12.10
2023-05-20T22:48:08.569Z,12.10
2023-05-20T22:53:11.175Z,12.00
2023-05-20T22:58:13.641Z,12.10
2023-05-20T23:03:18.340Z,12.10
2023-05-20T23:08:23.293Z,12.00
2023-05-20T23:13:28.522Z,11.90
2023-05-20T23:18:36.430Z,11.90
2023-05-20T23:23:44.147Z,11.80
2023-05-20T23:28:46.385Z,11.70
2023-05-20T23:33:49.261Z,11.60
2023-05-20T23:38:53.083Z,11.50
2023-05-20T23:43:55.321Z,11.40
2023-05-20T23:49:01.851Z,11.30
2023-05-20T23:54:04.276Z,11.20
2023-05-20T23:59:06.609Z,11.20
